sensor_id;sensor_type;location;lat;lon;timestamp;pressure;altitude;pressure_sealevel;temperature;humidity
30819;BME280;17546;42.674;23.284;2023-02-13T00:00:01;96444.22;;;8.02;43.87
30819;BME280;17546;42.674;23.284;2023-02-13T00:02:26;96449.22;;;8.07;43.83
30819;BME280;17546;42.674;23.284;2023-02-13T00:04:52;96450.56;;;8.16;43.69
30819;BME280;17546;42.674;23.284;2023-02-13T00:07:17;96454.06;;;8.03;43.96
30819;BME280;17546;42.674;23.284;2023-02-13T00:09:43;96451.09;;;8.11;44.07
30819;BME280;17546;42.674;23.284;2023-02-13T00:12:08;96449.34;;;8.17;43.81
30819;BME280;17546;42.674;23.284;2023-02-13T00:14:35;96451.41;;;8.13;43.81
30819;BME280;17546;42.674;23.284;2023-02-13T00:17:02;96446.66;;;8.00;43.76
30819;BME280;17546;42.674;23.284;2023-02-13T00:19:27;96452.19;;;7.71;44.42
30819;BME280;17546;42.674;23.284;2023-02-13T00:21:53;96449.47;;;7.84;44.33
30819;BME280;17546;42.674;23.284;2023-02-13T00:24:18;96456.22;;;7.96;44.15
30819;BME280;17546;42.674;23.284;2023-02-13T00:26:43;96447.53;;;7.97;44.01
30819;BME280;17546;42.674;23.284;2023-02-13T00:29:09;96457.28;;;8.15;43.34
30819;BME280;17546;42.674;23.284;2023-02-13T00:31:34;96463.03;;;8.20;43.45
30819;BME280;17546;42.674;23.284;2023-02-13T00:34:00;96456.94;;;8.13;43.17
30819;BME280;17546;42.674;23.284;2023-02-13T00:36:25;96461.97;;;7.89;43.47
30819;BME280;17546;42.674;23.284;2023-02-13T00:38:52;96458.84;;;8.16;42.80
30819;BME280;17546;42.674;23.284;2023-02-13T00:41:18;96457.72;;;8.13;43.10
30819;BME280;17546;42.674;23.284;2023-02-13T00:43:44;96465.91;;;8.17;42.91
30819;BME280;17546;42.674;23.284;2023-02-13T00:46:10;96460.47;;;8.13;42.81
30819;BME280;17546;42.674;23.284;2023-02-13T00:48:36;96460.59;;;8.10;43.19
30819;BME280;17546;42.674;23.284;2023-02-13T00:51:03;96465.69;;;8.24;42.97
30819;BME280;17546;42.674;23.284;2023-02-13T00:53:29;96467.13;;;8.28;42.64
30819;BME280;17546;42.674;23.284;2023-02-13T00:55:54;96467.69;;;8.23;43.05
30819;BME280;17546;42.674;23.284;2023-02-13T00:58:20;96478.28;;;8.25;43.05
30819;BME280;17546;42.674;23.284;2023-02-13T01:00:49;96474.53;;;8.19;42.89
30819;BME280;17546;42.674;23.284;2023-02-13T01:03:17;96484.25;;;8.23;42.88
30819;BME280;17546;42.674;23.284;2023-02-13T01:05:43;96461.88;;;7.92;43.75
30819;BME280;17546;42.674;23.284;2023-02-13T01:08:10;96468.75;;;8.00;43.29
30819;BME280;17546;42.674;23.284;2023-02-13T01:10:37;96474.25;;;8.00;43.52
30819;BME280;17546;42.674;23.284;2023-02-13T01:13:03;96474.91;;;7.92;43.60
30819;BME280;17546;42.674;23.284;2023-02-13T01:15:29;96475.13;;;7.97;43.75
30819;BME280;17546;42.674;23.284;2023-02-13T01:17:55;96469.13;;;7.86;44.05
30819;BME280;17546;42.674;23.284;2023-02-13T01:20:22;96480.25;;;7.82;43.97
30819;BME280;17546;42.674;23.284;2023-02-13T01:22:49;96475.84;;;7.10;46.82
30819;BME280;17546;42.674;23.284;2023-02-13T01:25:15;96478.41;;;7.34;45.93
30819;BME280;17546;42.674;23.284;2023-02-13T01:27:40;96477.31;;;7.60;45.29
30819;BME280;17546;42.674;23.284;2023-02-13T01:30:07;96464.19;;;7.64;45.14
30819;BME280;17546;42.674;23.284;2023-02-13T01:32:41;96485.78;;;7.53;45.51
30819;BME280;17546;42.674;23.284;2023-02-13T01:35:07;96474.53;;;7.60;45.65
30819;BME280;17546;42.674;23.284;2023-02-13T01:37:33;96486.94;;;7.39;45.94
30819;BME280;17546;42.674;23.284;2023-02-13T01:39:59;96482.13;;;7.11;46.62
30819;BME280;17546;42.674;23.284;2023-02-13T01:42:26;96486.25;;;7.02;47.13
30819;BME280;17546;42.674;23.284;2023-02-13T01:44:54;96484.81;;;6.98;47.55
30819;BME280;17546;42.674;23.284;2023-02-13T01:47:38;96481.53;;;6.70;48.54
30819;BME280;17546;42.674;23.284;2023-02-13T01:50:36;96478.16;;;7.12;47.35
30819;BME280;17546;42.674;23.284;2023-02-13T01:53:13;96485.81;;;7.37;47.19
30819;BME280;17546;42.674;23.284;2023-02-13T01:55:50;96481.66;;;6.63;48.74
30819;BME280;17546;42.674;23.284;2023-02-13T01:58:19;96493.75;;;7.02;47.46
30819;BME280;17546;42.674;23.284;2023-02-13T02:00:46;96497.97;;;6.74;48.62
30819;BME280;17546;42.674;23.284;2023-02-13T02:06:06;96488.66;;;7.00;48.30
30819;BME280;17546;42.674;23.284;2023-02-13T02:08:35;96488.50;;;7.24;47.44
30819;BME280;17546;42.674;23.284;2023-02-13T02:11:08;96490.81;;;7.09;48.13
30819;BME280;17546;42.674;23.284;2023-02-13T02:13:36;96482.81;;;7.15;47.91
30819;BME280;17546;42.674;23.284;2023-02-13T02:16:01;96482.09;;;7.43;47.34
30819;BME280;17546;42.674;23.284;2023-02-13T02:18:27;96489.44;;;7.34;47.29
30819;BME280;17546;42.674;23.284;2023-02-13T02:24:07;96480.88;;;7.61;46.66
30819;BME280;17546;42.674;23.284;2023-02-13T02:33:02;96486.25;;;7.64;46.35
30819;BME280;17546;42.674;23.284;2023-02-13T02:35:56;96487.34;;;7.83;45.82
30819;BME280;17546;42.674;23.284;2023-02-13T02:38:25;96488.53;;;7.82;45.74
30819;BME280;17546;42.674;23.284;2023-02-13T02:50:11;96504.88;;;7.60;45.67
30819;BME280;17546;42.674;23.284;2023-02-13T02:58:22;96500.53;;;7.76;45.32
30819;BME280;17546;42.674;23.284;2023-02-13T03:01:17;96517.19;;;7.10;47.02
30819;BME280;17546;42.674;23.284;2023-02-13T03:04:03;96511.72;;;7.56;45.84
30819;BME280;17546;42.674;23.284;2023-02-13T03:07:00;96506.03;;;7.63;46.10
30819;BME280;17546;42.674;23.284;2023-02-13T03:09:36;96495.66;;;7.67;45.43
30819;BME280;17546;42.674;23.284;2023-02-13T03:12:23;96495.53;;;7.87;45.13
30819;BME280;17546;42.674;23.284;2023-02-13T03:15:09;96511.00;;;7.97;45.16
30819;BME280;17546;42.674;23.284;2023-02-13T03:17:35;96505.34;;;7.88;44.94
30819;BME280;17546;42.674;23.284;2023-02-13T03:23:32;96507.47;;;7.97;45.10
30819;BME280;17546;42.674;23.284;2023-02-13T03:26:27;96511.25;;;8.03;44.46
30819;BME280;17546;42.674;23.284;2023-02-13T03:29:21;96508.25;;;7.97;44.43
30819;BME280;17546;42.674;23.284;2023-02-13T03:32:26;96511.72;;;8.14;44.48
30819;BME280;17546;42.674;23.284;2023-02-13T03:38:02;96516.31;;;7.75;44.81
30819;BME280;17546;42.674;23.284;2023-02-13T03:40:37;96511.09;;;7.19;45.73
30819;BME280;17546;42.674;23.284;2023-02-13T03:43:28;96518.38;;;6.93;46.77
30819;BME280;17546;42.674;23.284;2023-02-13T03:45:58;96514.75;;;7.45;45.60
30819;BME280;17546;42.674;23.284;2023-02-13T03:48:32;96505.28;;;7.30;46.03
30819;BME280;17546;42.674;23.284;2023-02-13T03:51:44;96510.94;;;7.55;45.59
30819;BME280;17546;42.674;23.284;2023-02-13T03:54:32;96506.59;;;7.71;45.25
30819;BME280;17546;42.674;23.284;2023-02-13T03:57:19;96509.63;;;7.76;45.19
30819;BME280;17546;42.674;23.284;2023-02-13T04:00:10;96506.56;;;7.41;45.58
30819;BME280;17546;42.674;23.284;2023-02-13T04:02:42;96508.22;;;7.06;46.77
30819;BME280;17546;42.674;23.284;2023-02-13T04:05:14;96501.75;;;6.96;46.46
30819;BME280;17546;42.674;23.284;2023-02-13T04:07:41;96502.03;;;7.02;46.84
30819;BME280;17546;42.674;23.284;2023-02-13T04:10:12;96510.63;;;6.71;47.74
30819;BME280;17546;42.674;23.284;2023-02-13T04:15:30;96518.06;;;7.23;46.27
30819;BME280;17546;42.674;23.284;2023-02-13T04:18:06;96518.03;;;7.07;46.68
30819;BME280;17546;42.674;23.284;2023-02-13T04:20:33;96518.53;;;6.69;47.67
30819;BME280;17546;42.674;23.284;2023-02-13T04:23:04;96504.72;;;7.06;46.95
30819;BME280;17546;42.674;23.284;2023-02-13T04:25:31;96514.00;;;7.28;46.46
30819;BME280;17546;42.674;23.284;2023-02-13T04:27:57;96510.38;;;7.48;45.73
30819;BME280;17546;42.674;23.284;2023-02-13T04:30:22;96515.16;;;7.60;45.56
30819;BME280;17546;42.674;23.284;2023-02-13T04:32:48;96510.47;;;7.73;45.16
30819;BME280;17546;42.674;23.284;2023-02-13T04:35:14;96505.72;;;7.74;45.03
30819;BME280;17546;42.674;23.284;2023-02-13T04:37:39;96511.22;;;7.90;44.84
30819;BME280;17546;42.674;23.284;2023-02-13T04:40:05;96509.97;;;7.91;44.90
30819;BME280;17546;42.674;23.284;2023-02-13T04:42:31;96505.91;;;7.96;44.65
30819;BME280;17546;42.674;23.284;2023-02-13T04:44:56;96516.19;;;7.95;44.77
30819;BME280;17546;42.674;23.284;2023-02-13T04:47:22;96511.81;;;8.11;44.33
30819;BME280;17546;42.674;23.284;2023-02-13T04:49:48;96508.31;;;7.81;44.69
30819;BME280;17546;42.674;23.284;2023-02-13T04:52:14;96514.66;;;7.94;44.45
30819;BME280;17546;42.674;23.284;2023-02-13T04:54:40;96520.69;;;7.89;44.24
30819;BME280;17546;42.674;23.284;2023-02-13T04:57:05;96511.13;;;7.94;43.85
30819;BME280;17546;42.674;23.284;2023-02-13T04:59:31;96521.22;;;7.84;44.11
30819;BME280;17546;42.674;23.284;2023-02-13T05:01:57;96526.75;;;7.84;43.82
30819;BME280;17546;42.674;23.284;2023-02-13T05:04:23;96518.25;;;7.91;43.91
30819;BME280;17546;42.674;23.284;2023-02-13T05:06:50;96536.66;;;8.11;43.91
30819;BME280;17546;42.674;23.284;2023-02-13T05:09:15;96536.63;;;8.27;43.49
30819;BME280;17546;42.674;23.284;2023-02-13T05:11:41;96539.91;;;8.22;43.64
30819;BME280;17546;42.674;23.284;2023-02-13T05:14:09;96530.50;;;8.19;43.88
30819;BME280;17546;42.674;23.284;2023-02-13T05:16:34;96537.25;;;8.31;43.77
30819;BME280;17546;42.674;23.284;2023-02-13T05:19:00;96550.22;;;8.34;43.63
30819;BME280;17546;42.674;23.284;2023-02-13T05:21:25;96536.00;;;8.48;43.16
30819;BME280;17546;42.674;23.284;2023-02-13T05:24:09;96537.59;;;8.33;43.40
30819;BME280;17546;42.674;23.284;2023-02-13T05:26:35;96544.75;;;8.47;43.50
30819;BME280;17546;42.674;23.284;2023-02-13T05:29:01;96552.16;;;8.50;43.18
30819;BME280;17546;42.674;23.284;2023-02-13T05:31:55;96553.38;;;8.62;42.94
30819;BME280;17546;42.674;23.284;2023-02-13T05:34:23;96549.81;;;8.48;43.14
30819;BME280;17546;42.674;23.284;2023-02-13T05:36:50;96543.78;;;8.37;43.21
30819;BME280;17546;42.674;23.284;2023-02-13T05:39:16;96552.88;;;8.08;43.29
30819;BME280;17546;42.674;23.284;2023-02-13T05:41:43;96551.03;;;7.89;43.68
30819;BME280;17546;42.674;23.284;2023-02-13T05:44:09;96557.72;;;8.04;43.69
30819;BME280;17546;42.674;23.284;2023-02-13T05:46:36;96548.94;;;8.10;43.39
30819;BME280;17546;42.674;23.284;2023-02-13T05:49:03;96556.47;;;8.22;43.75
30819;BME280;17546;42.674;23.284;2023-02-13T05:51:29;96550.56;;;8.36;43.27
30819;BME280;17546;42.674;23.284;2023-02-13T05:53:54;96559.19;;;8.38;43.36
30819;BME280;17546;42.674;23.284;2023-02-13T05:56:20;96555.19;;;8.39;43.33
30819;BME280;17546;42.674;23.284;2023-02-13T05:58:45;96563.69;;;8.32;43.26
30819;BME280;17546;42.674;23.284;2023-02-13T06:01:11;96569.81;;;8.53;42.88
30819;BME280;17546;42.674;23.284;2023-02-13T06:03:37;96570.94;;;8.42;42.94
30819;BME280;17546;42.674;23.284;2023-02-13T06:06:04;96571.41;;;8.54;42.79
30819;BME280;17546;42.674;23.284;2023-02-13T06:08:30;96572.16;;;8.54;42.85
30819;BME280;17546;42.674;23.284;2023-02-13T06:10:55;96573.91;;;8.19;43.34
30819;BME280;17546;42.674;23.284;2023-02-13T06:13:21;96563.13;;;8.37;42.99
30819;BME280;17546;42.674;23.284;2023-02-13T06:15:47;96574.78;;;8.16;43.57
30819;BME280;17546;42.674;23.284;2023-02-13T06:18:13;96577.72;;;8.08;43.42
30819;BME280;17546;42.674;23.284;2023-02-13T06:20:38;96579.22;;;8.26;43.55
30819;BME280;17546;42.674;23.284;2023-02-13T06:23:04;96579.69;;;8.37;43.07
30819;BME280;17546;42.674;23.284;2023-02-13T06:25:29;96585.53;;;8.56;42.86
30819;BME280;17546;42.674;23.284;2023-02-13T06:27:55;96581.66;;;8.53;42.51
30819;BME280;17546;42.674;23.284;2023-02-13T06:30:21;96581.56;;;8.57;42.84
30819;BME280;17546;42.674;23.284;2023-02-13T06:32:46;96584.22;;;8.31;43.02
30819;BME280;17546;42.674;23.284;2023-02-13T06:35:13;96590.16;;;8.46;42.86
30819;BME280;17546;42.674;23.284;2023-02-13T06:37:39;96584.34;;;8.11;43.10
30819;BME280;17546;42.674;23.284;2023-02-13T06:40:08;96592.00;;;8.20;43.47
30819;BME280;17546;42.674;23.284;2023-02-13T06:42:34;96591.38;;;8.45;43.06
30819;BME280;17546;42.674;23.284;2023-02-13T06:44:59;96600.84;;;8.15;43.58
30819;BME280;17546;42.674;23.284;2023-02-13T06:47:24;96592.84;;;8.33;43.15
30819;BME280;17546;42.674;23.284;2023-02-13T06:49:50;96602.97;;;8.23;43.49
30819;BME280;17546;42.674;23.284;2023-02-13T06:52:15;96593.03;;;8.42;43.10
30819;BME280;17546;42.674;23.284;2023-02-13T06:54:41;96595.03;;;8.55;42.71
30819;BME280;17546;42.674;23.284;2023-02-13T06:57:07;96591.59;;;8.51;43.10
30819;BME280;17546;42.674;23.284;2023-02-13T06:59:32;96590.38;;;8.52;42.95
30819;BME280;17546;42.674;23.284;2023-02-13T07:01:58;96583.84;;;8.45;42.96
30819;BME280;17546;42.674;23.284;2023-02-13T07:04:23;96587.84;;;8.28;43.24
30819;BME280;17546;42.674;23.284;2023-02-13T07:06:49;96582.34;;;8.28;43.37
30819;BME280;17546;42.674;23.284;2023-02-13T07:09:14;96585.97;;;8.54;43.16
30819;BME280;17546;42.674;23.284;2023-02-13T07:11:41;96588.81;;;8.51;43.22
30819;BME280;17546;42.674;23.284;2023-02-13T07:14:07;96582.75;;;8.43;43.20
30819;BME280;17546;42.674;23.284;2023-02-13T07:16:32;96581.94;;;7.84;44.17
30819;BME280;17546;42.674;23.284;2023-02-13T07:18:58;96587.66;;;7.44;45.23
30819;BME280;17546;42.674;23.284;2023-02-13T07:21:24;96595.75;;;7.35;45.42
30819;BME280;17546;42.674;23.284;2023-02-13T07:23:50;96593.94;;;7.28;45.34
30819;BME280;17546;42.674;23.284;2023-02-13T07:26:15;96597.16;;;7.43;45.18
30819;BME280;17546;42.674;23.284;2023-02-13T07:28:41;96589.38;;;7.38;44.91
30819;BME280;17546;42.674;23.284;2023-02-13T07:31:06;96599.75;;;7.96;44.25
30819;BME280;17546;42.674;23.284;2023-02-13T07:33:35;96610.44;;;8.10;44.12
30819;BME280;17546;42.674;23.284;2023-02-13T07:36:02;96597.22;;;7.72;45.17
30819;BME280;17546;42.674;23.284;2023-02-13T07:38:30;96594.84;;;8.03;44.48
30819;BME280;17546;42.674;23.284;2023-02-13T07:41:03;96592.28;;;7.80;44.56
30819;BME280;17546;42.674;23.284;2023-02-13T07:43:29;96594.38;;;7.59;45.25
30819;BME280;17546;42.674;23.284;2023-02-13T07:45:58;96591.63;;;7.59;44.26
30819;BME280;17546;42.674;23.284;2023-02-13T07:48:24;96592.16;;;6.49;47.16
30819;BME280;17546;42.674;23.284;2023-02-13T07:50:52;96597.78;;;7.14;46.02
30819;BME280;17546;42.674;23.284;2023-02-13T07:53:17;96585.13;;;7.00;46.34
30819;BME280;17546;42.674;23.284;2023-02-13T07:55:43;96591.63;;;6.74;46.93
30819;BME280;17546;42.674;23.284;2023-02-13T07:58:08;96590.78;;;6.57;47.20
30819;BME280;17546;42.674;23.284;2023-02-13T08:00:34;96591.78;;;7.19;46.10
30819;BME280;17546;42.674;23.284;2023-02-13T08:03:00;96599.63;;;7.54;45.48
30819;BME280;17546;42.674;23.284;2023-02-13T08:05:26;96595.72;;;7.02;46.05
30819;BME280;17546;42.674;23.284;2023-02-13T08:07:54;96602.28;;;7.24;46.02
30819;BME280;17546;42.674;23.284;2023-02-13T08:10:19;96598.16;;;7.65;44.88
30819;BME280;17546;42.674;23.284;2023-02-13T08:13:04;96597.25;;;8.01;44.52
30819;BME280;17546;42.674;23.284;2023-02-13T08:15:31;96597.63;;;7.87;44.44
30819;BME280;17546;42.674;23.284;2023-02-13T08:17:56;96592.16;;;7.54;45.46
30819;BME280;17546;42.674;23.284;2023-02-13T08:20:22;96587.72;;;7.73;44.99
30819;BME280;17546;42.674;23.284;2023-02-13T08:22:48;96590.97;;;8.01;44.34
30819;BME280;17546;42.674;23.284;2023-02-13T08:25:14;96587.38;;;8.17;43.92
30819;BME280;17546;42.674;23.284;2023-02-13T08:27:41;96591.03;;;7.97;44.05
30819;BME280;17546;42.674;23.284;2023-02-13T08:30:08;96601.97;;;8.46;43.59
30819;BME280;17546;42.674;23.284;2023-02-13T08:32:33;96590.97;;;8.30;43.80
30819;BME280;17546;42.674;23.284;2023-02-13T08:34:59;96587.28;;;8.50;43.27
30819;BME280;17546;42.674;23.284;2023-02-13T08:37:24;96579.97;;;8.43;43.49
30819;BME280;17546;42.674;23.284;2023-02-13T08:39:50;96595.50;;;8.07;44.02
30819;BME280;17546;42.674;23.284;2023-02-13T08:42:15;96597.09;;;7.76;45.30
30819;BME280;17546;42.674;23.284;2023-02-13T08:44:41;96591.84;;;8.27;44.19
30819;BME280;17546;42.674;23.284;2023-02-13T08:47:07;96593.66;;;8.17;44.22
30819;BME280;17546;42.674;23.284;2023-02-13T08:49:33;96596.84;;;7.86;44.72
30819;BME280;17546;42.674;23.284;2023-02-13T08:51:59;96592.75;;;8.37;43.70
30819;BME280;17546;42.674;23.284;2023-02-13T08:54:25;96596.09;;;8.86;43.02
30819;BME280;17546;42.674;23.284;2023-02-13T08:56:52;96596.28;;;8.08;44.62
30819;BME280;17546;42.674;23.284;2023-02-13T08:59:17;96594.44;;;8.18;44.33
30819;BME280;17546;42.674;23.284;2023-02-13T09:01:43;96595.38;;;7.98;44.74
30819;BME280;17546;42.674;23.284;2023-02-13T09:04:09;96590.28;;;7.97;44.61
30819;BME280;17546;42.674;23.284;2023-02-13T09:06:34;96589.44;;;8.13;44.64
30819;BME280;17546;42.674;23.284;2023-02-13T09:09:00;96586.34;;;8.11;44.57
30819;BME280;17546;42.674;23.284;2023-02-13T09:11:26;96589.94;;;8.40;44.29
30819;BME280;17546;42.674;23.284;2023-02-13T09:13:52;96585.34;;;8.76;43.80
30819;BME280;17546;42.674;23.284;2023-02-13T09:16:18;96587.09;;;8.57;43.51
30819;BME280;17546;42.674;23.284;2023-02-13T09:18:49;96591.16;;;8.52;43.59
30819;BME280;17546;42.674;23.284;2023-02-13T09:21:18;96583.56;;;8.56;43.75
30819;BME280;17546;42.674;23.284;2023-02-13T09:23:44;96597.66;;;9.13;42.66
30819;BME280;17546;42.674;23.284;2023-02-13T09:26:11;96588.56;;;9.25;42.66
30819;BME280;17546;42.674;23.284;2023-02-13T09:28:37;96584.47;;;8.37;43.34
30819;BME280;17546;42.674;23.284;2023-02-13T09:31:15;96580.13;;;8.23;43.61
30819;BME280;17546;42.674;23.284;2023-02-13T09:33:42;96590.22;;;7.84;44.32
30819;BME280;17546;42.674;23.284;2023-02-13T09:36:18;96575.66;;;8.42;43.64
30819;BME280;17546;42.674;23.284;2023-02-13T09:38:47;96574.03;;;8.44;43.72
30819;BME280;17546;42.674;23.284;2023-02-13T09:41:22;96581.50;;;9.12;42.52
30819;BME280;17546;42.674;23.284;2023-02-13T09:44:19;96578.66;;;9.15;42.28
30819;BME280;17546;42.674;23.284;2023-02-13T09:47:08;96571.22;;;8.74;42.95
30819;BME280;17546;42.674;23.284;2023-02-13T09:49:38;96566.13;;;8.98;43.45
30819;BME280;17546;42.674;23.284;2023-02-13T09:52:06;96569.69;;;9.11;43.91
30819;BME280;17546;42.674;23.284;2023-02-13T09:54:33;96562.75;;;9.54;42.61
30819;BME280;17546;42.674;23.284;2023-02-13T09:57:02;96559.53;;;10.03;41.83
30819;BME280;17546;42.674;23.284;2023-02-13T10:02:28;96554.06;;;9.30;41.80
30819;BME280;17546;42.674;23.284;2023-02-13T10:10:52;96551.53;;;9.10;42.63
30819;BME280;17546;42.674;23.284;2023-02-13T10:16:20;96531.72;;;9.72;41.43
30819;BME280;17546;42.674;23.284;2023-02-13T10:21:22;96525.25;;;9.88;40.78
30819;BME280;17546;42.674;23.284;2023-02-13T10:24:00;96521.09;;;10.27;39.83
30819;BME280;17546;42.674;23.284;2023-02-13T10:26:35;96522.19;;;10.83;39.32
30819;BME280;17546;42.674;23.284;2023-02-13T10:29:30;96511.91;;;9.73;40.74
30819;BME280;17546;42.674;23.284;2023-02-13T10:32:24;96508.25;;;10.21;40.40
30819;BME280;17546;42.674;23.284;2023-02-13T10:34:56;96463.16;;;10.20;39.73
30819;BME280;17546;42.674;23.284;2023-02-13T10:37:23;96500.28;;;10.45;39.99
30819;BME280;17546;42.674;23.284;2023-02-13T10:39:50;96502.59;;;10.24;40.20
30819;BME280;17546;42.674;23.284;2023-02-13T10:42:35;96490.66;;;10.59;39.33
30819;BME280;17546;42.674;23.284;2023-02-13T10:45:44;96486.56;;;10.41;39.57
30819;BME280;17546;42.674;23.284;2023-02-13T10:48:46;96484.72;;;11.19;38.90
30819;BME280;17546;42.674;23.284;2023-02-13T11:02:33;96472.28;;;11.70;37.03
30819;BME280;17546;42.674;23.284;2023-02-13T11:05:12;96467.50;;;11.70;37.16
30819;BME280;17546;42.674;23.284;2023-02-13T11:07:40;96462.59;;;11.65;37.40
30819;BME280;17546;42.674;23.284;2023-02-13T11:10:15;96454.25;;;11.56;37.03
30819;BME280;17546;42.674;23.284;2023-02-13T11:12:41;96451.47;;;11.74;36.49
30819;BME280;17546;42.674;23.284;2023-02-13T11:15:23;96445.41;;;11.11;37.15
30819;BME280;17546;42.674;23.284;2023-02-13T11:17:52;96447.00;;;11.77;36.46
30819;BME280;17546;42.674;23.284;2023-02-13T11:20:29;96441.28;;;11.44;36.87
30819;BME280;17546;42.674;23.284;2023-02-13T11:22:56;96434.50;;;11.82;36.04
30819;BME280;17546;42.674;23.284;2023-02-13T11:25:37;96424.91;;;12.29;35.66
30819;BME280;17546;42.674;23.284;2023-02-13T11:28:17;96424.72;;;12.42;35.28
30819;BME280;17546;42.674;23.284;2023-02-13T11:30:45;96420.47;;;12.13;35.64
30819;BME280;17546;42.674;23.284;2023-02-13T11:35:41;96412.13;;;11.11;36.86
30819;BME280;17546;42.674;23.284;2023-02-13T11:40:36;96400.25;;;11.66;36.58
30819;BME280;17546;42.674;23.284;2023-02-13T11:43:06;96391.94;;;11.57;36.66
30819;BME280;17546;42.674;23.284;2023-02-13T11:45:32;96391.34;;;11.71;36.25
30819;BME280;17546;42.674;23.284;2023-02-13T11:47:58;96385.50;;;11.60;36.59
30819;BME280;17546;42.674;23.284;2023-02-13T11:50:32;96381.00;;;11.99;35.78
30819;BME280;17546;42.674;23.284;2023-02-13T11:53:05;96376.44;;;12.20;35.50
30819;BME280;17546;42.674;23.284;2023-02-13T11:55:39;96367.53;;;12.07;35.26
30819;BME280;17546;42.674;23.284;2023-02-13T12:00:39;96359.47;;;12.52;34.48
30819;BME280;17546;42.674;23.284;2023-02-13T12:06:13;96350.13;;;11.88;34.77
30819;BME280;17546;42.674;23.284;2023-02-13T12:08:45;96342.97;;;12.06;34.14
30819;BME280;17546;42.674;23.284;2023-02-13T12:11:35;96351.00;;;12.04;34.21
30819;BME280;17546;42.674;23.284;2023-02-13T12:14:03;96336.31;;;12.12;34.53
30819;BME280;17546;42.674;23.284;2023-02-13T12:16:38;96342.56;;;11.98;34.26
30819;BME280;17546;42.674;23.284;2023-02-13T12:19:11;96340.28;;;12.63;33.56
30819;BME280;17546;42.674;23.284;2023-02-13T12:26:58;96343.06;;;12.87;33.06
30819;BME280;17546;42.674;23.284;2023-02-13T12:32:29;96337.16;;;12.94;33.05
30819;BME280;17546;42.674;23.284;2023-02-13T12:52:07;96315.09;;;12.00;33.80
30819;BME280;17546;42.674;23.284;2023-02-13T12:54:57;96311.88;;;12.26;33.35
30819;BME280;17546;42.674;23.284;2023-02-13T12:57:40;96312.59;;;12.69;32.77
30819;BME280;17546;42.674;23.284;2023-02-13T13:22:43;96283.41;;;12.40;33.00
30819;BME280;17546;42.674;23.284;2023-02-13T13:25:23;96284.00;;;12.20;33.42
30819;BME280;17546;42.674;23.284;2023-02-13T13:28:28;96266.97;;;11.94;33.78
30819;BME280;17546;42.674;23.284;2023-02-13T13:31:01;96231.19;;;11.87;33.67
30819;BME280;17546;42.674;23.284;2023-02-13T13:33:38;96264.16;;;12.60;32.78
30819;BME280;17546;42.674;23.284;2023-02-13T13:36:47;96251.44;;;12.45;32.88
30819;BME280;17546;42.674;23.284;2023-02-13T13:39:36;96271.81;;;12.17;33.40
30819;BME280;17546;42.674;23.284;2023-02-13T13:42:17;96274.38;;;12.30;33.39
30819;BME280;17546;42.674;23.284;2023-02-13T13:53:10;96262.47;;;12.30;33.35
30819;BME280;17546;42.674;23.284;2023-02-13T13:58:35;96239.75;;;12.07;33.29
30819;BME280;17546;42.674;23.284;2023-02-13T14:03:52;96238.69;;;12.05;33.28
30819;BME280;17546;42.674;23.284;2023-02-13T14:06:23;96232.06;;;12.02;33.08
30819;BME280;17546;42.674;23.284;2023-02-13T14:11:41;96267.94;;;12.48;32.78
30819;BME280;17546;42.674;23.284;2023-02-13T14:17:00;96244.66;;;12.46;33.22
30819;BME280;17546;42.674;23.284;2023-02-13T14:19:37;96249.22;;;12.25;33.51
30819;BME280;17546;42.674;23.284;2023-02-13T14:27:32;96240.53;;;12.32;33.33
30819;BME280;17546;42.674;23.284;2023-02-13T14:29:59;96244.69;;;12.36;33.33
30819;BME280;17546;42.674;23.284;2023-02-13T14:32:38;96235.50;;;12.21;33.72
30819;BME280;17546;42.674;23.284;2023-02-13T14:35:17;96250.44;;;11.99;33.81
30819;BME280;17546;42.674;23.284;2023-02-13T14:37:50;96242.19;;;12.38;33.42
30819;BME280;17546;42.674;23.284;2023-02-13T14:42:58;96239.88;;;12.85;32.69
30819;BME280;17546;42.674;23.284;2023-02-13T14:45:29;96233.00;;;12.95;32.38
30819;BME280;17546;42.674;23.284;2023-02-13T14:47:57;96240.94;;;12.15;33.64
30819;BME280;17546;42.674;23.284;2023-02-13T14:50:42;96244.38;;;12.34;33.51
30819;BME280;17546;42.674;23.284;2023-02-13T14:55:54;96241.84;;;12.22;33.55
30819;BME280;17546;42.674;23.284;2023-02-13T14:58:34;96228.97;;;11.48;34.86
30819;BME280;17546;42.674;23.284;2023-02-13T15:01:06;96232.19;;;11.65;34.38
30819;BME280;17546;42.674;23.284;2023-02-13T15:06:13;96233.19;;;11.86;34.15
30819;BME280;17546;42.674;23.284;2023-02-13T15:08:48;96233.94;;;11.96;34.10
30819;BME280;17546;42.674;23.284;2023-02-13T15:11:43;96233.41;;;12.40;33.34
30819;BME280;17546;42.674;23.284;2023-02-13T15:16:51;96234.44;;;12.18;33.57
30819;BME280;17546;42.674;23.284;2023-02-13T15:19:19;96230.31;;;12.38;33.17
30819;BME280;17546;42.674;23.284;2023-02-13T15:24:34;96235.50;;;12.21;33.27
30819;BME280;17546;42.674;23.284;2023-02-13T15:27:04;96241.28;;;12.42;33.28
30819;BME280;17546;42.674;23.284;2023-02-13T15:29:30;96244.34;;;12.19;33.62
30819;BME280;17546;42.674;23.284;2023-02-13T15:31:56;96237.25;;;12.43;33.11
30819;BME280;17546;42.674;23.284;2023-02-13T15:34:26;96241.47;;;12.05;33.98
30819;BME280;17546;42.674;23.284;2023-02-13T15:36:52;96240.53;;;12.32;33.49
30819;BME280;17546;42.674;23.284;2023-02-13T15:39:22;96238.00;;;12.43;33.01
30819;BME280;17546;42.674;23.284;2023-02-13T15:41:51;96240.78;;;12.43;33.05
30819;BME280;17546;42.674;23.284;2023-02-13T15:44:25;96249.06;;;12.28;33.40
30819;BME280;17546;42.674;23.284;2023-02-13T15:46:54;96252.38;;;12.42;33.20
30819;BME280;17546;42.674;23.284;2023-02-13T15:49:24;96255.28;;;12.47;33.09
30819;BME280;17546;42.674;23.284;2023-02-13T15:51:50;96255.88;;;12.51;33.12
30819;BME280;17546;42.674;23.284;2023-02-13T15:54:29;96261.78;;;12.44;33.05